CheckWX is a tool to help pilots better visualize weather data.  It is not intended as a substitute for an official pre-flight weather briefing.

18:26:31 UTC

KPWA METAR
Wiley Post Airport
Oklahoma City, Oklahoma, USA
Current

34 mins ago

KPWA 241753Z 03004KT 10SM OVC017 16/12 A2993 RMK AO2 PRESFR SLP128 T01610117 10161 20128 58007
Observed
Apr-24 @ 17:53 UTC
Wind
  • 030° at 4 KTS
Visibility
10 SM
Flight Rules
MVFR
Cloud Levels
  • Overcast at 1,700' AGL
Temperature
16°C / 61°F
Dewpoint
12°C / 54°F
Humidity
77%
Altimeter
29.93" Hg
Pressure
1013.52 hPa
Previous

2 hours ago

KPWA 241653Z 04003KT 10SM OVC015 15/12 A2995 RMK AO2 SLP138 T01500117
Observed
Apr-24 @ 16:53 UTC
Wind
  • 040° at 3 KTS
Visibility
10 SM
Flight Rules
MVFR
Cloud Levels
  • Overcast at 1,500' AGL
Temperature
15°C / 59°F
Dewpoint
12°C / 54°F
Humidity
82%
Altimeter
29.95" Hg
Pressure
1014.22 hPa
Previous

3 hours ago

KPWA 241553Z 34004KT 10SM OVC013 14/12 A2996 RMK AO2 SLP140 T01440117
Observed
Apr-24 @ 15:53 UTC
Wind
  • 340° at 4 KTS
Visibility
10 SM
Flight Rules
MVFR
Cloud Levels
  • Overcast at 1,300' AGL
Temperature
14°C / 57°F
Dewpoint
12°C / 54°F
Humidity
88%
Altimeter
29.96" Hg
Pressure
1014.52 hPa